sensor_id;sensor_type;location;lat;lon;timestamp;P1;durP1;ratioP1;P2;durP2;ratioP2
75303;SDS011;64042;50.916;6.988;2023-02-24T00:01:18;2.25;;;2.05;;
75303;SDS011;64042;50.916;6.988;2023-02-24T00:03:49;2.38;;;2.10;;
75303;SDS011;64042;50.916;6.988;2023-02-24T00:06:20;4.38;;;4.07;;
75303;SDS011;64042;50.916;6.988;2023-02-24T00:11:32;2.05;;;1.85;;
75303;SDS011;64042;50.916;6.988;2023-02-24T00:13:58;2.17;;;1.98;;
75303;SDS011;64042;50.916;6.988;2023-02-24T00:16:23;2.20;;;2.00;;
75303;SDS011;64042;50.916;6.988;2023-02-24T00:18:49;2.50;;;2.30;;
75303;SDS011;64042;50.916;6.988;2023-02-24T00:21:15;2.50;;;2.30;;
75303;SDS011;64042;50.916;6.988;2023-02-24T00:23:41;2.55;;;2.03;;
75303;SDS011;64042;50.916;6.988;2023-02-24T00:26:08;2.63;;;2.42;;
75303;SDS011;64042;50.916;6.988;2023-02-24T00:28:34;2.00;;;1.80;;
75303;SDS011;64042;50.916;6.988;2023-02-24T00:31:04;2.10;;;1.90;;
75303;SDS011;64042;50.916;6.988;2023-02-24T00:33:31;2.90;;;2.70;;
75303;SDS011;64042;50.916;6.988;2023-02-24T00:36:03;2.58;;;2.00;;
75303;SDS011;64042;50.916;6.988;2023-02-24T00:38:36;2.72;;;2.20;;
75303;SDS011;64042;50.916;6.988;2023-02-24T00:41:13;2.35;;;2.05;;
75303;SDS011;64042;50.916;6.988;2023-02-24T00:43:40;2.50;;;2.30;;
75303;SDS011;64042;50.916;6.988;2023-02-24T00:46:10;2.25;;;2.05;;
75303;SDS011;64042;50.916;6.988;2023-02-24T00:48:37;2.42;;;2.22;;
75303;SDS011;64042;50.916;6.988;2023-02-24T00:53:31;3.00;;;2.80;;
75303;SDS011;64042;50.916;6.988;2023-02-24T00:55:58;2.40;;;2.20;;
75303;SDS011;64042;50.916;6.988;2023-02-24T00:58:24;2.20;;;2.00;;
75303;SDS011;64042;50.916;6.988;2023-02-24T01:00:54;2.90;;;2.60;;
75303;SDS011;64042;50.916;6.988;2023-02-24T01:03:22;1.92;;;1.77;;
75303;SDS011;64042;50.916;6.988;2023-02-24T01:05:47;2.40;;;2.20;;
75303;SDS011;64042;50.916;6.988;2023-02-24T01:08:12;1.95;;;1.85;;
75303;SDS011;64042;50.916;6.988;2023-02-24T01:10:47;2.17;;;1.98;;
75303;SDS011;64042;50.916;6.988;2023-02-24T01:13:38;1.92;;;1.75;;
75303;SDS011;64042;50.916;6.988;2023-02-24T01:16:04;2.43;;;2.23;;
75303;SDS011;64042;50.916;6.988;2023-02-24T01:18:29;2.53;;;1.95;;
75303;SDS011;64042;50.916;6.988;2023-02-24T01:20:56;2.38;;;1.90;;
75303;SDS011;64042;50.916;6.988;2023-02-24T01:23:22;2.15;;;1.95;;
75303;SDS011;64042;50.916;6.988;2023-02-24T01:25:48;2.30;;;2.03;;
75303;SDS011;64042;50.916;6.988;2023-02-24T01:28:13;2.97;;;2.42;;
75303;SDS011;64042;50.916;6.988;2023-02-24T01:30:39;2.38;;;2.17;;
75303;SDS011;64042;50.916;6.988;2023-02-24T01:33:06;2.25;;;1.98;;
75303;SDS011;64042;50.916;6.988;2023-02-24T01:35:32;2.77;;;2.20;;
75303;SDS011;64042;50.916;6.988;2023-02-24T01:37:59;2.20;;;2.00;;
75303;SDS011;64042;50.916;6.988;2023-02-24T01:40:25;2.58;;;2.25;;
75303;SDS011;64042;50.916;6.988;2023-02-24T01:42:51;2.45;;;2.08;;
75303;SDS011;64042;50.916;6.988;2023-02-24T01:45:21;2.58;;;1.90;;
75303;SDS011;64042;50.916;6.988;2023-02-24T01:47:48;2.65;;;2.42;;
75303;SDS011;64042;50.916;6.988;2023-02-24T01:50:15;2.22;;;2.05;;
75303;SDS011;64042;50.916;6.988;2023-02-24T01:52:45;2.20;;;2.00;;
75303;SDS011;64042;50.916;6.988;2023-02-24T01:55:19;3.30;;;3.00;;
75303;SDS011;64042;50.916;6.988;2023-02-24T01:57:52;2.63;;;2.40;;
75303;SDS011;64042;50.916;6.988;2023-02-24T02:00:19;2.72;;;2.25;;
75303;SDS011;64042;50.916;6.988;2023-02-24T02:03:03;2.58;;;2.20;;
75303;SDS011;64042;50.916;6.988;2023-02-24T02:05:32;2.60;;;2.05;;
75303;SDS011;64042;50.916;6.988;2023-02-24T02:07:57;2.22;;;2.03;;
75303;SDS011;64042;50.916;6.988;2023-02-24T02:10:23;2.92;;;2.72;;
75303;SDS011;64042;50.916;6.988;2023-02-24T02:12:50;2.53;;;1.83;;
75303;SDS011;64042;50.916;6.988;2023-02-24T02:15:16;3.03;;;2.22;;
75303;SDS011;64042;50.916;6.988;2023-02-24T02:20:39;3.97;;;3.78;;
75303;SDS011;64042;50.916;6.988;2023-02-24T02:23:37;2.28;;;1.83;;
75303;SDS011;64042;50.916;6.988;2023-02-24T02:40:02;2.58;;;2.25;;
75303;SDS011;64042;50.916;6.988;2023-02-24T02:42:38;2.70;;;2.47;;
75303;SDS011;64042;50.916;6.988;2023-02-24T02:47:41;2.70;;;2.50;;
75303;SDS011;64042;50.916;6.988;2023-02-24T02:52:39;2.55;;;2.05;;
75303;SDS011;64042;50.916;6.988;2023-02-24T02:55:11;2.60;;;1.88;;
75303;SDS011;64042;50.916;6.988;2023-02-24T02:57:41;2.15;;;1.95;;
75303;SDS011;64042;50.916;6.988;2023-02-24T03:00:12;3.97;;;3.60;;
75303;SDS011;64042;50.916;6.988;2023-02-24T03:02:48;2.13;;;1.92;;
75303;SDS011;64042;50.916;6.988;2023-02-24T03:05:15;2.13;;;1.90;;
75303;SDS011;64042;50.916;6.988;2023-02-24T03:07:46;2.45;;;2.15;;
75303;SDS011;64042;50.916;6.988;2023-02-24T03:10:16;3.00;;;2.20;;
75303;SDS011;64042;50.916;6.988;2023-02-24T03:12:46;2.80;;;1.95;;
75303;SDS011;64042;50.916;6.988;2023-02-24T03:15:14;2.25;;;1.95;;
75303;SDS011;64042;50.916;6.988;2023-02-24T03:17:41;2.90;;;2.20;;
75303;SDS011;64042;50.916;6.988;2023-02-24T03:20:12;3.30;;;2.67;;
75303;SDS011;64042;50.916;6.988;2023-02-24T03:22:42;3.22;;;2.65;;
75303;SDS011;64042;50.916;6.988;2023-02-24T03:25:13;2.42;;;1.95;;
75303;SDS011;64042;50.916;6.988;2023-02-24T03:30:12;2.30;;;2.10;;
75303;SDS011;64042;50.916;6.988;2023-02-24T03:32:50;3.53;;;2.30;;
75303;SDS011;64042;50.916;6.988;2023-02-24T03:35:25;2.15;;;1.77;;
75303;SDS011;64042;50.916;6.988;2023-02-24T03:37:53;2.88;;;1.98;;
75303;SDS011;64042;50.916;6.988;2023-02-24T03:40:21;2.15;;;1.98;;
75303;SDS011;64042;50.916;6.988;2023-02-24T03:42:58;2.25;;;2.00;;
75303;SDS011;64042;50.916;6.988;2023-02-24T03:45:29;2.72;;;2.13;;
75303;SDS011;64042;50.916;6.988;2023-02-24T03:47:56;2.25;;;2.05;;
75303;SDS011;64042;50.916;6.988;2023-02-24T03:50:22;2.47;;;1.90;;
75303;SDS011;64042;50.916;6.988;2023-02-24T03:58:17;2.10;;;1.67;;
75303;SDS011;64042;50.916;6.988;2023-02-24T04:00:58;2.95;;;2.65;;
75303;SDS011;64042;50.916;6.988;2023-02-24T04:03:48;4.05;;;2.03;;
75303;SDS011;64042;50.916;6.988;2023-02-24T04:06:31;3.22;;;2.10;;
75303;SDS011;64042;50.916;6.988;2023-02-24T04:09:16;2.65;;;2.20;;
75303;SDS011;64042;50.916;6.988;2023-02-24T04:11:51;3.63;;;2.20;;
75303;SDS011;64042;50.916;6.988;2023-02-24T04:14:47;2.25;;;2.00;;
75303;SDS011;64042;50.916;6.988;2023-02-24T04:17:35;2.65;;;2.05;;
75303;SDS011;64042;50.916;6.988;2023-02-24T04:20:04;3.17;;;2.00;;
75303;SDS011;64042;50.916;6.988;2023-02-24T04:22:37;2.53;;;1.83;;
75303;SDS011;64042;50.916;6.988;2023-02-24T04:25:05;3.60;;;2.35;;
75303;SDS011;64042;50.916;6.988;2023-02-24T04:27:37;3.65;;;3.38;;
75303;SDS011;64042;50.916;6.988;2023-02-24T04:30:04;3.97;;;2.50;;
75303;SDS011;64042;50.916;6.988;2023-02-24T04:32:31;4.85;;;4.28;;
75303;SDS011;64042;50.916;6.988;2023-02-24T04:35:00;3.10;;;2.40;;
75303;SDS011;64042;50.916;6.988;2023-02-24T04:37:27;3.03;;;2.20;;
75303;SDS011;64042;50.916;6.988;2023-02-24T04:39:57;3.00;;;2.25;;
75303;SDS011;64042;50.916;6.988;2023-02-24T04:42:23;3.25;;;2.17;;
75303;SDS011;64042;50.916;6.988;2023-02-24T04:44:49;4.47;;;2.58;;
75303;SDS011;64042;50.916;6.988;2023-02-24T04:47:14;4.27;;;1.93;;
75303;SDS011;64042;50.916;6.988;2023-02-24T04:49:39;2.83;;;2.37;;
75303;SDS011;64042;50.916;6.988;2023-02-24T04:52:08;3.05;;;1.83;;
75303;SDS011;64042;50.916;6.988;2023-02-24T04:54:33;3.30;;;2.30;;
75303;SDS011;64042;50.916;6.988;2023-02-24T04:56:59;2.88;;;2.55;;
75303;SDS011;64042;50.916;6.988;2023-02-24T04:59:25;2.97;;;2.25;;
75303;SDS011;64042;50.916;6.988;2023-02-24T05:01:51;3.10;;;2.33;;
75303;SDS011;64042;50.916;6.988;2023-02-24T05:04:19;2.40;;;2.20;;
75303;SDS011;64042;50.916;6.988;2023-02-24T05:06:44;3.10;;;2.47;;
75303;SDS011;64042;50.916;6.988;2023-02-24T05:09:11;3.45;;;2.30;;
75303;SDS011;64042;50.916;6.988;2023-02-24T05:11:43;2.70;;;2.33;;
75303;SDS011;64042;50.916;6.988;2023-02-24T05:14:13;2.47;;;1.92;;
75303;SDS011;64042;50.916;6.988;2023-02-24T05:16:43;2.83;;;2.45;;
75303;SDS011;64042;50.916;6.988;2023-02-24T05:19:11;2.92;;;2.63;;
75303;SDS011;64042;50.916;6.988;2023-02-24T05:21:56;2.40;;;2.13;;
75303;SDS011;64042;50.916;6.988;2023-02-24T05:24:22;2.95;;;2.58;;
75303;SDS011;64042;50.916;6.988;2023-02-24T05:26:49;4.07;;;3.78;;
75303;SDS011;64042;50.916;6.988;2023-02-24T05:29:21;2.83;;;1.90;;
75303;SDS011;64042;50.916;6.988;2023-02-24T05:31:47;2.80;;;2.42;;
75303;SDS011;64042;50.916;6.988;2023-02-24T05:34:12;2.40;;;2.10;;
75303;SDS011;64042;50.916;6.988;2023-02-24T05:36:41;2.58;;;2.22;;
75303;SDS011;64042;50.916;6.988;2023-02-24T05:39:09;2.70;;;2.28;;
75303;SDS011;64042;50.916;6.988;2023-02-24T05:41:37;3.05;;;2.35;;
75303;SDS011;64042;50.916;6.988;2023-02-24T05:44:05;3.80;;;3.42;;
75303;SDS011;64042;50.916;6.988;2023-02-24T05:46:44;2.88;;;2.30;;
75303;SDS011;64042;50.916;6.988;2023-02-24T05:49:14;2.83;;;2.30;;
75303;SDS011;64042;50.916;6.988;2023-02-24T05:54:18;3.00;;;2.67;;
75303;SDS011;64042;50.916;6.988;2023-02-24T05:56:44;3.80;;;2.40;;
75303;SDS011;64042;50.916;6.988;2023-02-24T05:59:10;2.47;;;2.10;;
75303;SDS011;64042;50.916;6.988;2023-02-24T06:01:37;2.75;;;1.95;;
75303;SDS011;64042;50.916;6.988;2023-02-24T06:06:44;3.33;;;2.00;;
75303;SDS011;64042;50.916;6.988;2023-02-24T06:09:12;2.65;;;2.10;;
75303;SDS011;64042;50.916;6.988;2023-02-24T06:11:38;3.63;;;2.05;;
75303;SDS011;64042;50.916;6.988;2023-02-24T06:14:04;3.10;;;2.03;;
75303;SDS011;64042;50.916;6.988;2023-02-24T06:16:34;2.70;;;1.83;;
75303;SDS011;64042;50.916;6.988;2023-02-24T06:19:04;3.08;;;2.20;;
75303;SDS011;64042;50.916;6.988;2023-02-24T06:21:30;3.63;;;3.33;;
75303;SDS011;64042;50.916;6.988;2023-02-24T06:23:55;2.83;;;2.50;;
75303;SDS011;64042;50.916;6.988;2023-02-24T06:26:23;3.10;;;2.25;;
75303;SDS011;64042;50.916;6.988;2023-02-24T06:28:51;2.65;;;2.17;;
75303;SDS011;64042;50.916;6.988;2023-02-24T06:31:17;2.63;;;1.98;;
75303;SDS011;64042;50.916;6.988;2023-02-24T06:33:45;2.28;;;2.08;;
75303;SDS011;64042;50.916;6.988;2023-02-24T06:36:10;3.15;;;2.10;;
75303;SDS011;64042;50.916;6.988;2023-02-24T06:38:38;2.20;;;1.70;;
75303;SDS011;64042;50.916;6.988;2023-02-24T06:41:04;2.90;;;2.00;;
75303;SDS011;64042;50.916;6.988;2023-02-24T06:43:42;2.30;;;1.77;;
75303;SDS011;64042;50.916;6.988;2023-02-24T06:46:10;3.97;;;3.58;;
75303;SDS011;64042;50.916;6.988;2023-02-24T06:48:36;5.47;;;5.00;;
75303;SDS011;64042;50.916;6.988;2023-02-24T06:51:05;2.97;;;2.33;;
75303;SDS011;64042;50.916;6.988;2023-02-24T06:53:32;2.28;;;2.08;;
75303;SDS011;64042;50.916;6.988;2023-02-24T06:56:07;3.20;;;2.55;;
75303;SDS011;64042;50.916;6.988;2023-02-24T06:58:42;2.78;;;2.20;;
75303;SDS011;64042;50.916;6.988;2023-02-24T07:01:12;4.07;;;2.15;;
75303;SDS011;64042;50.916;6.988;2023-02-24T07:03:41;2.60;;;2.17;;
75303;SDS011;64042;50.916;6.988;2023-02-24T07:06:26;2.67;;;1.80;;
75303;SDS011;64042;50.916;6.988;2023-02-24T07:08:53;2.47;;;2.13;;
75303;SDS011;64042;50.916;6.988;2023-02-24T07:11:19;2.95;;;2.00;;
75303;SDS011;64042;50.916;6.988;2023-02-24T07:13:45;2.28;;;1.70;;
75303;SDS011;64042;50.916;6.988;2023-02-24T07:16:16;2.25;;;1.70;;
75303;SDS011;64042;50.916;6.988;2023-02-24T07:18:42;2.85;;;2.00;;
75303;SDS011;64042;50.916;6.988;2023-02-24T07:21:12;2.88;;;1.65;;
75303;SDS011;64042;50.916;6.988;2023-02-24T07:23:38;3.13;;;1.92;;
75303;SDS011;64042;50.916;6.988;2023-02-24T07:26:14;2.83;;;1.92;;
75303;SDS011;64042;50.916;6.988;2023-02-24T07:28:41;2.10;;;1.50;;
75303;SDS011;64042;50.916;6.988;2023-02-24T07:31:08;3.85;;;2.72;;
75303;SDS011;64042;50.916;6.988;2023-02-24T07:33:35;2.30;;;1.73;;
75303;SDS011;64042;50.916;6.988;2023-02-24T07:36:05;2.97;;;1.83;;
75303;SDS011;64042;50.916;6.988;2023-02-24T07:38:34;2.60;;;1.60;;
75303;SDS011;64042;50.916;6.988;2023-02-24T07:41:01;3.33;;;2.05;;
75303;SDS011;64042;50.916;6.988;2023-02-24T07:43:26;2.22;;;1.73;;
75303;SDS011;64042;50.916;6.988;2023-02-24T07:45:52;2.17;;;1.58;;
75303;SDS011;64042;50.916;6.988;2023-02-24T07:48:17;2.33;;;1.53;;
75303;SDS011;64042;50.916;6.988;2023-02-24T07:50:42;2.20;;;1.85;;
75303;SDS011;64042;50.916;6.988;2023-02-24T07:53:08;4.33;;;2.10;;
75303;SDS011;64042;50.916;6.988;2023-02-24T07:55:34;2.70;;;2.42;;
75303;SDS011;64042;50.916;6.988;2023-02-24T07:58:00;3.25;;;1.90;;
75303;SDS011;64042;50.916;6.988;2023-02-24T08:00:27;2.03;;;1.65;;
75303;SDS011;64042;50.916;6.988;2023-02-24T08:02:55;3.08;;;1.98;;
75303;SDS011;64042;50.916;6.988;2023-02-24T08:05:20;2.45;;;1.92;;
75303;SDS011;64042;50.916;6.988;2023-02-24T08:07:48;2.53;;;1.83;;
75303;SDS011;64042;50.916;6.988;2023-02-24T08:10:17;2.40;;;1.52;;
75303;SDS011;64042;50.916;6.988;2023-02-24T08:12:50;2.60;;;1.63;;
75303;SDS011;64042;50.916;6.988;2023-02-24T08:15:19;2.13;;;1.70;;
75303;SDS011;64042;50.916;6.988;2023-02-24T08:17:48;2.13;;;1.92;;
75303;SDS011;64042;50.916;6.988;2023-02-24T08:20:17;2.65;;;1.80;;
75303;SDS011;64042;50.916;6.988;2023-02-24T08:22:43;2.58;;;1.50;;
75303;SDS011;64042;50.916;6.988;2023-02-24T08:25:11;2.28;;;1.70;;
75303;SDS011;64042;50.916;6.988;2023-02-24T08:27:42;2.25;;;1.70;;
75303;SDS011;64042;50.916;6.988;2023-02-24T08:30:09;1.85;;;1.75;;
75303;SDS011;64042;50.916;6.988;2023-02-24T08:32:47;2.25;;;1.83;;
75303;SDS011;64042;50.916;6.988;2023-02-24T08:35:20;2.42;;;1.92;;
75303;SDS011;64042;50.916;6.988;2023-02-24T08:38:04;2.20;;;1.80;;
75303;SDS011;64042;50.916;6.988;2023-02-24T08:40:34;2.67;;;1.70;;
75303;SDS011;64042;50.916;6.988;2023-02-24T08:45:43;3.00;;;1.55;;
75303;SDS011;64042;50.916;6.988;2023-02-24T08:48:20;2.08;;;1.50;;
75303;SDS011;64042;50.916;6.988;2023-02-24T08:50:57;2.17;;;1.98;;
75303;SDS011;64042;50.916;6.988;2023-02-24T08:53:25;2.53;;;1.52;;
75303;SDS011;64042;50.916;6.988;2023-02-24T08:55:55;2.67;;;2.17;;
75303;SDS011;64042;50.916;6.988;2023-02-24T08:58:25;2.42;;;1.70;;
75303;SDS011;64042;50.916;6.988;2023-02-24T09:00:55;3.00;;;2.70;;
75303;SDS011;64042;50.916;6.988;2023-02-24T09:05:59;3.40;;;1.95;;
75303;SDS011;64042;50.916;6.988;2023-02-24T09:08:30;2.97;;;1.83;;
75303;SDS011;64042;50.916;6.988;2023-02-24T09:10:58;1.63;;;1.50;;
75303;SDS011;64042;50.916;6.988;2023-02-24T09:13:24;2.00;;;1.42;;
75303;SDS011;64042;50.916;6.988;2023-02-24T09:15:57;1.70;;;1.30;;
75303;SDS011;64042;50.916;6.988;2023-02-24T09:18:26;1.48;;;1.33;;
75303;SDS011;64042;50.916;6.988;2023-02-24T09:20:54;1.65;;;1.30;;
75303;SDS011;64042;50.916;6.988;2023-02-24T09:23:20;2.17;;;1.95;;
75303;SDS011;64042;50.916;6.988;2023-02-24T09:25:53;3.08;;;1.85;;
75303;SDS011;64042;50.916;6.988;2023-02-24T09:28:28;2.10;;;1.40;;
75303;SDS011;64042;50.916;6.988;2023-02-24T09:30:57;2.35;;;1.13;;
75303;SDS011;64042;50.916;6.988;2023-02-24T09:36:35;2.63;;;1.50;;
75303;SDS011;64042;50.916;6.988;2023-02-24T09:38:55;2.42;;;1.50;;
75303;SDS011;64042;50.916;6.988;2023-02-24T09:41:29;2.72;;;1.50;;
75303;SDS011;64042;50.916;6.988;2023-02-24T09:44:04;2.33;;;1.52;;
75303;SDS011;64042;50.916;6.988;2023-02-24T09:46:42;2.03;;;1.35;;
75303;SDS011;64042;50.916;6.988;2023-02-24T09:49:23;1.67;;;1.55;;
75303;SDS011;64042;50.916;6.988;2023-02-24T09:52:03;2.40;;;1.75;;
75303;SDS011;64042;50.916;6.988;2023-02-24T09:54:33;2.30;;;1.60;;
75303;SDS011;64042;50.916;6.988;2023-02-24T09:57:09;2.25;;;1.40;;
75303;SDS011;64042;50.916;6.988;2023-02-24T10:05:22;1.95;;;1.65;;
75303;SDS011;64042;50.916;6.988;2023-02-24T10:07:51;2.25;;;1.33;;
75303;SDS011;64042;50.916;6.988;2023-02-24T10:10:26;2.03;;;1.55;;
75303;SDS011;64042;50.916;6.988;2023-02-24T10:13:06;1.75;;;1.23;;
75303;SDS011;64042;50.916;6.988;2023-02-24T10:15:40;2.28;;;1.42;;
75303;SDS011;64042;50.916;6.988;2023-02-24T10:32:19;2.53;;;1.38;;
75303;SDS011;64042;50.916;6.988;2023-02-24T10:34:48;2.72;;;1.70;;
75303;SDS011;64042;50.916;6.988;2023-02-24T10:37:15;2.50;;;1.63;;
75303;SDS011;64042;50.916;6.988;2023-02-24T10:39:45;4.03;;;1.42;;
75303;SDS011;64042;50.916;6.988;2023-02-24T10:42:21;2.83;;;1.45;;
75303;SDS011;64042;50.916;6.988;2023-02-24T10:45:07;1.73;;;1.40;;
75303;SDS011;64042;50.916;6.988;2023-02-24T10:47:41;3.25;;;1.73;;
75303;SDS011;64042;50.916;6.988;2023-02-24T10:50:18;2.17;;;1.90;;
75303;SDS011;64042;50.916;6.988;2023-02-24T10:52:46;3.45;;;1.42;;
75303;SDS011;64042;50.916;6.988;2023-02-24T10:55:27;4.00;;;3.20;;
75303;SDS011;64042;50.916;6.988;2023-02-24T10:58:13;2.15;;;1.80;;
75303;SDS011;64042;50.916;6.988;2023-02-24T11:00:51;3.00;;;1.67;;
75303;SDS011;64042;50.916;6.988;2023-02-24T11:03:30;2.33;;;1.52;;
75303;SDS011;64042;50.916;6.988;2023-02-24T11:06:20;2.15;;;1.33;;
75303;SDS011;64042;50.916;6.988;2023-02-24T11:08:56;2.08;;;1.50;;
75303;SDS011;64042;50.916;6.988;2023-02-24T11:11:42;3.35;;;2.28;;
75303;SDS011;64042;50.916;6.988;2023-02-24T11:14:26;2.25;;;1.40;;
75303;SDS011;64042;50.916;6.988;2023-02-24T11:17:28;1.92;;;1.73;;
75303;SDS011;64042;50.916;6.988;2023-02-24T11:19:56;2.95;;;2.08;;
75303;SDS011;64042;50.916;6.988;2023-02-24T11:22:26;3.28;;;1.58;;
75303;SDS011;64042;50.916;6.988;2023-02-24T11:24:54;2.13;;;1.60;;
75303;SDS011;64042;50.916;6.988;2023-02-24T11:27:20;6.65;;;1.75;;
75303;SDS011;64042;50.916;6.988;2023-02-24T11:30:06;1.88;;;1.70;;
75303;SDS011;64042;50.916;6.988;2023-02-24T11:33:16;2.83;;;1.77;;
75303;SDS011;64042;50.916;6.988;2023-02-24T11:35:47;3.05;;;1.63;;
75303;SDS011;64042;50.916;6.988;2023-02-24T11:38:44;3.72;;;1.52;;
75303;SDS011;64042;50.916;6.988;2023-02-24T11:41:16;2.42;;;1.50;;
75303;SDS011;64042;50.916;6.988;2023-02-24T11:43:59;2.58;;;1.63;;
75303;SDS011;64042;50.916;6.988;2023-02-24T11:46:42;2.13;;;1.30;;
75303;SDS011;64042;50.916;6.988;2023-02-24T11:49:29;2.88;;;1.45;;
75303;SDS011;64042;50.916;6.988;2023-02-24T11:52:09;3.38;;;1.67;;
75303;SDS011;64042;50.916;6.988;2023-02-24T11:54:47;6.35;;;1.70;;
75303;SDS011;64042;50.916;6.988;2023-02-24T11:57:19;3.67;;;1.58;;
75303;SDS011;64042;50.916;6.988;2023-02-24T11:59:52;2.10;;;1.67;;
75303;SDS011;64042;50.916;6.988;2023-02-24T12:08:13;2.72;;;1.50;;
75303;SDS011;64042;50.916;6.988;2023-02-24T12:10:48;1.60;;;1.30;;
75303;SDS011;64042;50.916;6.988;2023-02-24T12:13:26;3.47;;;1.85;;
75303;SDS011;64042;50.916;6.988;2023-02-24T12:15:58;3.55;;;1.30;;
75303;SDS011;64042;50.916;6.988;2023-02-24T12:18:34;2.40;;;1.63;;
75303;SDS011;64042;50.916;6.988;2023-02-24T12:21:21;2.15;;;1.95;;
75303;SDS011;64042;50.916;6.988;2023-02-24T12:23:50;2.47;;;2.10;;
75303;SDS011;64042;50.916;6.988;2023-02-24T12:34:39;2.42;;;1.70;;
75303;SDS011;64042;50.916;6.988;2023-02-24T12:37:29;1.92;;;1.45;;
75303;SDS011;64042;50.916;6.988;2023-02-24T12:42:57;1.92;;;1.50;;
75303;SDS011;64042;50.916;6.988;2023-02-24T12:51:31;1.85;;;1.05;;
75303;SDS011;64042;50.916;6.988;2023-02-24T12:54:02;2.00;;;1.60;;
75303;SDS011;64042;50.916;6.988;2023-02-24T12:56:33;1.90;;;1.80;;
75303;SDS011;64042;50.916;6.988;2023-02-24T12:59:21;1.70;;;1.52;;
75303;SDS011;64042;50.916;6.988;2023-02-24T13:05:07;1.60;;;1.48;;
75303;SDS011;64042;50.916;6.988;2023-02-24T13:07:49;1.98;;;1.20;;
75303;SDS011;64042;50.916;6.988;2023-02-24T13:10:20;2.13;;;1.27;;
75303;SDS011;64042;50.916;6.988;2023-02-24T13:15:25;1.50;;;1.23;;
75303;SDS011;64042;50.916;6.988;2023-02-24T13:17:55;3.17;;;1.27;;
75303;SDS011;64042;50.916;6.988;2023-02-24T13:20:25;2.35;;;1.25;;
75303;SDS011;64042;50.916;6.988;2023-02-24T13:23:02;1.85;;;1.40;;
75303;SDS011;64042;50.916;6.988;2023-02-24T13:25:32;4.75;;;1.42;;
75303;SDS011;64042;50.916;6.988;2023-02-24T13:28:02;2.72;;;1.40;;
75303;SDS011;64042;50.916;6.988;2023-02-24T13:30:39;2.53;;;1.30;;
75303;SDS011;64042;50.916;6.988;2023-02-24T13:33:19;3.00;;;1.20;;
75303;SDS011;64042;50.916;6.988;2023-02-24T13:35:47;2.45;;;1.50;;
75303;SDS011;64042;50.916;6.988;2023-02-24T13:38:33;4.22;;;2.10;;
75303;SDS011;64042;50.916;6.988;2023-02-24T13:41:35;3.30;;;1.33;;
75303;SDS011;64042;50.916;6.988;2023-02-24T13:43:56;2.08;;;1.42;;
75303;SDS011;64042;50.916;6.988;2023-02-24T13:46:22;2.45;;;1.30;;
75303;SDS011;64042;50.916;6.988;2023-02-24T13:54:20;1.92;;;1.17;;
75303;SDS011;64042;50.916;6.988;2023-02-24T14:02:38;2.42;;;1.50;;
75303;SDS011;64042;50.916;6.988;2023-02-24T14:05:29;1.33;;;1.20;;
75303;SDS011;64042;50.916;6.988;2023-02-24T14:07:55;2.13;;;1.55;;
75303;SDS011;64042;50.916;6.988;2023-02-24T14:10:21;3.33;;;1.30;;
75303;SDS011;64042;50.916;6.988;2023-02-24T14:12:50;1.77;;;1.38;;
75303;SDS011;64042;50.916;6.988;2023-02-24T14:15:25;2.50;;;1.15;;
75303;SDS011;64042;50.916;6.988;2023-02-24T14:18:02;2.35;;;1.67;;
75303;SDS011;64042;50.916;6.988;2023-02-24T14:20:33;2.30;;;1.30;;
75303;SDS011;64042;50.916;6.988;2023-02-24T14:23:01;2.25;;;1.10;;
75303;SDS011;64042;50.916;6.988;2023-02-24T14:26:03;2.33;;;1.48;;
75303;SDS011;64042;50.916;6.988;2023-02-24T14:28:31;2.03;;;1.10;;
75303;SDS011;64042;50.916;6.988;2023-02-24T14:30:58;2.28;;;1.42;;
75303;SDS011;64042;50.916;6.988;2023-02-24T14:33:33;30.02;;;18.17;;
75303;SDS011;64042;50.916;6.988;2023-02-24T14:36:00;56.65;;;24.95;;
75303;SDS011;64042;50.916;6.988;2023-02-24T14:40:52;27.63;;;14.23;;
75303;SDS011;64042;50.916;6.988;2023-02-24T14:43:17;28.20;;;12.87;;
75303;SDS011;64042;50.916;6.988;2023-02-24T14:45:46;22.02;;;12.25;;
75303;SDS011;64042;50.916;6.988;2023-02-24T14:48:23;22.77;;;11.48;;
75303;SDS011;64042;50.916;6.988;2023-02-24T14:50:48;19.85;;;10.88;;
75303;SDS011;64042;50.916;6.988;2023-02-24T14:53:14;21.00;;;10.65;;
75303;SDS011;64042;50.916;6.988;2023-02-24T14:55:42;20.70;;;12.52;;
75303;SDS011;64042;50.916;6.988;2023-02-24T15:00:47;21.60;;;9.70;;
75303;SDS011;64042;50.916;6.988;2023-02-24T15:03:21;17.13;;;9.52;;
75303;SDS011;64042;50.916;6.988;2023-02-24T15:05:50;18.65;;;9.18;;
75303;SDS011;64042;50.916;6.988;2023-02-24T15:08:22;17.40;;;9.27;;
75303;SDS011;64042;50.916;6.988;2023-02-24T15:10:55;16.20;;;7.90;;
75303;SDS011;64042;50.916;6.988;2023-02-24T15:13:40;14.38;;;8.77;;
75303;SDS011;64042;50.916;6.988;2023-02-24T15:16:13;16.20;;;7.97;;
75303;SDS011;64042;50.916;6.988;2023-02-24T15:18:53;15.95;;;7.95;;
75303;SDS011;64042;50.916;6.988;2023-02-24T15:21:21;15.82;;;7.45;;
75303;SDS011;64042;50.916;6.988;2023-02-24T15:24:03;16.70;;;7.00;;
75303;SDS011;64042;50.916;6.988;2023-02-24T15:26:37;15.68;;;6.82;;
75303;SDS011;64042;50.916;6.988;2023-02-24T15:29:11;13.25;;;6.68;;
75303;SDS011;64042;50.916;6.988;2023-02-24T15:31:37;16.27;;;6.97;;
75303;SDS011;64042;50.916;6.988;2023-02-24T15:34:03;12.13;;;6.60;;
75303;SDS011;64042;50.916;6.988;2023-02-24T15:36:32;10.40;;;6.82;;
75303;SDS011;64042;50.916;6.988;2023-02-24T15:39:03;11.85;;;6.95;;
75303;SDS011;64042;50.916;6.988;2023-02-24T15:41:37;11.30;;;6.32;;
75303;SDS011;64042;50.916;6.988;2023-02-24T15:44:05;12.48;;;6.22;;
75303;SDS011;64042;50.916;6.988;2023-02-24T15:46:31;13.60;;;6.15;;
75303;SDS011;64042;50.916;6.988;2023-02-24T15:48:58;11.80;;;6.25;;
75303;SDS011;64042;50.916;6.988;2023-02-24T15:54:04;10.73;;;6.15;;
75303;SDS011;64042;50.916;6.988;2023-02-24T15:56:31;9.50;;;5.38;;
75303;SDS011;64042;50.916;6.988;2023-02-24T15:58:58;12.30;;;6.43;;
75303;SDS011;64042;50.916;6.988;2023-02-24T16:01:26;10.75;;;6.88;;
75303;SDS011;64042;50.916;6.988;2023-02-24T16:03:52;11.95;;;6.18;;
75303;SDS011;64042;50.916;6.988;2023-02-24T16:06:18;12.43;;;5.70;;
75303;SDS011;64042;50.916;6.988;2023-02-24T16:08:45;11.50;;;5.75;;
75303;SDS011;64042;50.916;6.988;2023-02-24T16:11:12;11.43;;;5.28;;
75303;SDS011;64042;50.916;6.988;2023-02-24T16:13:38;9.02;;;6.15;;
75303;SDS011;64042;50.916;6.988;2023-02-24T16:16:04;9.55;;;4.97;;
75303;SDS011;64042;50.916;6.988;2023-02-24T16:18:31;9.70;;;5.38;;
75303;SDS011;64042;50.916;6.988;2023-02-24T16:20:57;9.65;;;5.13;;
75303;SDS011;64042;50.916;6.988;2023-02-24T16:23:23;8.90;;;4.82;;
75303;SDS011;64042;50.916;6.988;2023-02-24T16:25:50;10.27;;;4.68;;
75303;SDS011;64042;50.916;6.988;2023-02-24T16:28:20;7.60;;;4.93;;
75303;SDS011;64042;50.916;6.988;2023-02-24T16:30:47;8.50;;;4.65;;
75303;SDS011;64042;50.916;6.988;2023-02-24T16:33:15;7.65;;;4.30;;
75303;SDS011;64042;50.916;6.988;2023-02-24T16:35:41;9.50;;;4.35;;
75303;SDS011;64042;50.916;6.988;2023-02-24T16:38:14;10.18;;;5.00;;
75303;SDS011;64042;50.916;6.988;2023-02-24T16:40:43;7.93;;;4.38;;
75303;SDS011;64042;50.916;6.988;2023-02-24T16:43:10;7.80;;;4.40;;
75303;SDS011;64042;50.916;6.988;2023-02-24T16:45:35;10.73;;;4.60;;
75303;SDS011;64042;50.916;6.988;2023-02-24T16:48:03;9.85;;;3.83;;
75303;SDS011;64042;50.916;6.988;2023-02-24T16:50:31;9.40;;;4.10;;
75303;SDS011;64042;50.916;6.988;2023-02-24T16:52:58;6.57;;;3.70;;
75303;SDS011;64042;50.916;6.988;2023-02-24T16:55:24;8.52;;;3.75;;
75303;SDS011;64042;50.916;6.988;2023-02-24T16:57:49;7.60;;;4.55;;
75303;SDS011;64042;50.916;6.988;2023-02-24T17:00:15;8.10;;;3.43;;
75303;SDS011;64042;50.916;6.988;2023-02-24T17:02:42;7.90;;;3.75;;
75303;SDS011;64042;50.916;6.988;2023-02-24T17:05:22;6.60;;;3.55;;